Weather History for K8A0 - October, 2012

Change the Weather History Date:

Tuesday, October 9, 2012

  Actual Average (KGAD) Record (KGAD)
Temperature  
Mean Temperature 56 °F -  
Max Temperature 68 °F 73 °F 93 °F (1941)
Min Temperature 44 °F 50 °F 30 °F (2000)
Degree Days  
Heating Degree Days 9    
Growing Degree Days 6 (Base 50)    
Moisture  
Dew Point 48 °F    
Average Humidity 82    
Maximum Humidity 100    
Minimum Humidity 46    
Precipitation  
Precipitation 0.00 in - - ()
Sea Level Pressure  
Sea Level Pressure 30.10 in    
Wind  
Wind Speed 2 mph (SW)    
Max Wind Speed 6 mph    
Max Gust Speed -    
Visibility 9 miles    
Events      
Averages and records for this station are not official NWS values.
T = Trace of Precipitation, MM = Missing Value Source: NWS Daily Summary

Daily Weather History Graph

Daily Weather History Graph

Search for Another Location

Airport or City:

Trip Planner

Search our weather history database for the weather conditions in past years. The results will help you decide how hot, cold, wet, or windy it might be!

Date:

Astronomy

Oct. 09, 2012 Rise Set
Actual Time 6:45 AM CDT 6:17 PM CDT
Civil Twilight 6:20 AM CDT 6:42 PM CDT
Nautical Twilight 5:51 AM CDT 7:11 PM CDT
Astronomical Twilight 5:22 AM CDT 7:40 PM CDT
Moon 12:37 AM CDT (10/9) 2:30 PM CDT (10/9)
Length of Visible Light 12h 22m
Length of Day
11h 31m
Last Quarter, 36% of the Moon is Illuminated
Oct 9
Last Quarter
Oct 15
New
Oct 21
First Quarter
Oct 29
Full
Nov 6
Last Quarter

Hourly Weather History & Observations

Time (CDT) Temp. Windchill Dew Point Humidity Pressure Visibility Wind Dir Wind Speed Gust Speed Precip Events Conditions
12:15 AM 50.0 °F - 50.0 °F 100% 30.13 in 10.0 mi East 3.5 mph - N/A   Unknown
12:35 AM 50.0 °F - 50.0 °F 100% 30.12 in 10.0 mi Calm Calm - N/A   Unknown
12:55 AM 50.0 °F - 50.0 °F 100% 30.13 in 10.0 mi Calm Calm - N/A   Unknown
1:15 AM 50.0 °F - 50.0 °F 100% 30.13 in 10.0 mi Calm Calm - N/A   Unknown
1:35 AM 50.0 °F - 50.0 °F 100% 30.13 in 10.0 mi Calm Calm - N/A   Unknown
1:55 AM 50.0 °F - 50.0 °F 100% 30.12 in 10.0 mi Calm Calm - N/A   Unknown
2:15 AM 48.2 °F - 48.2 °F 100% 30.12 in 10.0 mi Calm Calm - N/A   Unknown
2:35 AM 48.2 °F - 48.2 °F 100% 30.12 in 10.0 mi Calm Calm - N/A   Unknown
2:55 AM 46.4 °F - 46.4 °F 100% 30.12 in 10.0 mi Calm Calm - N/A   Unknown
3:15 AM 46.4 °F - 46.4 °F 100% 30.12 in 7.0 mi Calm Calm - N/A   Unknown
3:35 AM 46.4 °F - 46.4 °F 100% 30.12 in 7.0 mi Calm Calm - N/A   Unknown
3:55 AM 44.6 °F - 44.6 °F 100% 30.12 in 5.0 mi Calm Calm - N/A   Mist
4:15 AM 44.6 °F - 44.6 °F 100% 30.13 in 4.0 mi Calm Calm - N/A   Mist
4:35 AM 44.6 °F - 44.6 °F 100% 30.13 in 4.0 mi Calm Calm - N/A   Mist
4:55 AM 44.6 °F - 44.6 °F 100% 30.13 in 4.0 mi Calm Calm - N/A   Mist
5:15 AM 44.6 °F - 44.6 °F 100% 30.13 in 7.0 mi Calm Calm - N/A   Unknown
5:35 AM 44.6 °F - 44.6 °F 100% 30.13 in 10.0 mi Calm Calm - N/A   Unknown
5:55 AM 44.6 °F - 44.6 °F 100% 30.14 in 10.0 mi Calm Calm - N/A   Unknown
6:15 AM 44.6 °F 42.2 °F 44.6 °F 100% 30.14 in 7.0 mi North 4.6 mph - N/A   Unknown
6:35 AM 44.6 °F 43.1 °F 44.6 °F 100% 30.14 in 5.0 mi North 3.5 mph - N/A   Mist
6:55 AM 44.6 °F 43.1 °F 44.6 °F 100% 30.14 in 3.0 mi NNE 3.5 mph - N/A   Mist
7:15 AM 44.6 °F 42.2 °F 44.6 °F 100% 30.14 in 4.0 mi NNE 4.6 mph - N/A   Mist
7:55 AM 46.4 °F 45.2 °F 46.4 °F 100% 30.14 in 10.0 mi North 3.5 mph - N/A   Unknown
8:15 AM 48.2 °F - 48.2 °F 100% 30.15 in 10.0 mi North 3.5 mph - N/A   Unknown
8:35 AM 50.0 °F - 50.0 °F 100% 30.15 in 10.0 mi Calm Calm - N/A   Unknown
8:55 AM 51.8 °F - 51.8 °F 100% 30.15 in 10.0 mi Calm Calm - N/A   Unknown
9:35 AM 53.6 °F - 48.2 °F 82% 30.15 in 10.0 mi Calm Calm - N/A   Unknown
9:55 AM 55.4 °F - 44.6 °F 67% 30.15 in 10.0 mi Calm Calm - N/A   Unknown
10:15 AM 55.4 °F - 46.4 °F 72% 30.15 in 10.0 mi SSW 4.6 mph - N/A   Unknown
10:35 AM 57.2 °F - 46.4 °F 67% 30.15 in 10.0 mi SSW 3.5 mph - N/A   Unknown
10:55 AM 57.2 °F - 44.6 °F 63% 30.14 in 10.0 mi West 5.8 mph - N/A   Unknown
11:15 AM 57.2 °F - 44.6 °F 63% 30.14 in 10.0 mi SW 3.5 mph - N/A   Unknown
11:35 AM 60.8 °F - 44.6 °F 55% 30.13 in 10.0 mi WSW 4.6 mph - N/A   Unknown
11:55 AM 59.0 °F - 46.4 °F 63% 30.12 in 10.0 mi Calm Calm - N/A   Unknown
12:15 PM 60.8 °F - 46.4 °F 59% 30.12 in 10.0 mi SW 4.6 mph - N/A   Unknown
12:35 PM 62.6 °F - 46.4 °F 55% 30.11 in 10.0 mi Calm Calm - N/A   Unknown
12:55 PM 62.6 °F - 46.4 °F 55% 30.10 in 10.0 mi WSW 4.6 mph - N/A   Unknown
1:15 PM 62.6 °F - 46.4 °F 55% 30.09 in 10.0 mi West 3.5 mph - N/A   Unknown
1:35 PM 62.6 °F - 46.4 °F 55% 30.09 in 10.0 mi WSW 4.6 mph - N/A   Unknown
1:55 PM 62.6 °F - 46.4 °F 55% 30.08 in 10.0 mi Calm Calm - N/A   Unknown
2:15 PM 64.4 °F - 46.4 °F 52% 30.07 in 10.0 mi West 3.5 mph - N/A   Unknown
2:35 PM 64.4 °F - 46.4 °F 52% 30.07 in 10.0 mi South 3.5 mph - N/A   Unknown
2:55 PM 64.4 °F - 44.6 °F 49% 30.07 in 10.0 mi SSW 3.5 mph - N/A   Unknown
3:15 PM 66.2 °F - 44.6 °F 46% 30.06 in 10.0 mi WSW 3.5 mph - N/A   Unknown
3:35 PM 64.4 °F - 46.4 °F 52% 30.05 in 10.0 mi Calm Calm - N/A   Unknown
4:15 PM 64.4 °F - 46.4 °F 52% 30.04 in 10.0 mi Calm Calm - N/A   Unknown
4:35 PM 68.0 °F - 46.4 °F 46% 30.04 in 10.0 mi WSW 5.8 mph - N/A   Unknown
4:55 PM 66.2 °F - 46.4 °F 49% 30.04 in 10.0 mi WSW 3.5 mph - N/A   Unknown
5:15 PM 66.2 °F - 46.4 °F 49% 30.04 in 10.0 mi West 4.6 mph - N/A   Unknown
5:35 PM 64.4 °F - 46.4 °F 52% 30.04 in 10.0 mi Calm Calm - N/A   Unknown
5:55 PM 64.4 °F - 46.4 °F 52% 30.04 in 10.0 mi West 3.5 mph - N/A   Unknown
6:15 PM 60.8 °F - 48.2 °F 63% 30.04 in 10.0 mi Calm Calm - N/A   Unknown
6:35 PM 59.0 °F - 50.0 °F 72% 30.04 in 10.0 mi Calm Calm - N/A   Unknown
6:55 PM 57.2 °F - 50.0 °F 77% 30.05 in 10.0 mi Calm Calm - N/A   Unknown
7:15 PM 57.2 °F - 50.0 °F 77% 30.06 in 10.0 mi South 4.6 mph - N/A   Unknown
7:35 PM 57.2 °F - 50.0 °F 77% 30.06 in 10.0 mi South 4.6 mph - N/A   Unknown
7:55 PM 55.4 °F - 50.0 °F 82% 30.06 in 10.0 mi South 3.5 mph - N/A   Unknown
8:15 PM 55.4 °F - 50.0 °F 82% 30.06 in 10.0 mi Calm Calm - N/A   Unknown
8:35 PM 55.4 °F - 50.0 °F 82% 30.07 in 10.0 mi Calm Calm - N/A   Unknown
8:55 PM 53.6 °F - 53.6 °F 100% 30.07 in 10.0 mi Calm Calm - N/A   Unknown
9:15 PM 51.8 °F - 51.8 °F 100% 30.07 in 10.0 mi Calm Calm - N/A   Unknown
9:35 PM 51.8 °F - 51.8 °F 100% 30.07 in 10.0 mi Calm Calm - N/A   Unknown
9:55 PM 51.8 °F - 51.8 °F 100% 30.07 in 10.0 mi Calm Calm - N/A   Unknown
10:15 PM 51.8 °F - 51.8 °F 100% 30.07 in 10.0 mi SSE 3.5 mph - N/A   Unknown
10:35 PM 51.8 °F - 51.8 °F 100% 30.07 in 10.0 mi SE 3.5 mph - N/A   Unknown
10:55 PM 50.0 °F - 50.0 °F 100% 30.07 in 10.0 mi SE 4.6 mph - N/A   Unknown
11:15 PM 51.8 °F - 51.8 °F 100% 30.07 in 10.0 mi ESE 5.8 mph - N/A   Unknown
11:35 PM 51.8 °F - 51.8 °F 100% 30.07 in 10.0 mi SE 5.8 mph - N/A   Unknown
11:55 PM 51.8 °F - 51.8 °F 100% 30.07 in 10.0 mi SE 4.6 mph - N/A   Unknown